sensor_id;sensor_type;location;lat;lon;timestamp;temperature;humidity
12981;DHT22;6555;50.468;8.480;2022-10-04T00:01:43;11.10;57.80
12981;DHT22;6555;50.468;8.480;2022-10-04T00:06:52;11.00;57.80
12981;DHT22;6555;50.468;8.480;2022-10-04T00:11:59;11.00;57.80
12981;DHT22;6555;50.468;8.480;2022-10-04T00:17:08;10.90;57.60
12981;DHT22;6555;50.468;8.480;2022-10-04T00:22:16;10.80;57.60
12981;DHT22;6555;50.468;8.480;2022-10-04T00:27:22;10.80;57.80
12981;DHT22;6555;50.468;8.480;2022-10-04T00:32:28;10.70;57.90
12981;DHT22;6555;50.468;8.480;2022-10-04T00:37:55;10.70;58.00
12981;DHT22;6555;50.468;8.480;2022-10-04T00:43:01;10.60;58.10
12981;DHT22;6555;50.468;8.480;2022-10-04T00:48:30;10.60;57.90
12981;DHT22;6555;50.468;8.480;2022-10-04T00:53:47;10.60;58.10
12981;DHT22;6555;50.468;8.480;2022-10-04T00:59:21;10.60;58.00
12981;DHT22;6555;50.468;8.480;2022-10-04T01:04:39;10.50;57.80
12981;DHT22;6555;50.468;8.480;2022-10-04T01:09:48;10.50;57.80
12981;DHT22;6555;50.468;8.480;2022-10-04T01:15:01;10.40;57.70
12981;DHT22;6555;50.468;8.480;2022-10-04T01:20:30;10.30;57.90
12981;DHT22;6555;50.468;8.480;2022-10-04T01:25:47;10.30;58.10
12981;DHT22;6555;50.468;8.480;2022-10-04T01:30:51;10.20;58.20
12981;DHT22;6555;50.468;8.480;2022-10-04T01:35:54;10.20;58.00
12981;DHT22;6555;50.468;8.480;2022-10-04T01:41:00;10.10;58.20
12981;DHT22;6555;50.468;8.480;2022-10-04T01:46:09;10.20;58.80
12981;DHT22;6555;50.468;8.480;2022-10-04T01:51:17;10.10;58.20
12981;DHT22;6555;50.468;8.480;2022-10-04T01:56:25;10.10;58.20
12981;DHT22;6555;50.468;8.480;2022-10-04T02:01:33;10.00;58.30
12981;DHT22;6555;50.468;8.480;2022-10-04T02:06:41;10.00;58.40
12981;DHT22;6555;50.468;8.480;2022-10-04T02:11:48;10.00;58.30
12981;DHT22;6555;50.468;8.480;2022-10-04T02:16:53;10.00;58.40
12981;DHT22;6555;50.468;8.480;2022-10-04T02:21:57;10.10;58.50
12981;DHT22;6555;50.468;8.480;2022-10-04T02:27:02;10.00;58.40
12981;DHT22;6555;50.468;8.480;2022-10-04T02:32:07;10.00;58.30
12981;DHT22;6555;50.468;8.480;2022-10-04T02:37:29;10.00;58.20
12981;DHT22;6555;50.468;8.480;2022-10-04T02:42:37;10.00;58.20
12981;DHT22;6555;50.468;8.480;2022-10-04T02:47:44;9.90;58.40
12981;DHT22;6555;50.468;8.480;2022-10-04T02:52:52;9.90;58.40
12981;DHT22;6555;50.468;8.480;2022-10-04T02:57:58;9.90;58.40
12981;DHT22;6555;50.468;8.480;2022-10-04T03:03:12;9.90;58.40
12981;DHT22;6555;50.468;8.480;2022-10-04T03:08:17;9.80;58.50
12981;DHT22;6555;50.468;8.480;2022-10-04T03:13:22;9.80;58.40
12981;DHT22;6555;50.468;8.480;2022-10-04T03:18:25;9.80;58.60
12981;DHT22;6555;50.468;8.480;2022-10-04T03:23:30;9.80;58.70
12981;DHT22;6555;50.468;8.480;2022-10-04T03:28:36;9.80;58.80
12981;DHT22;6555;50.468;8.480;2022-10-04T03:33:40;9.80;58.60
12981;DHT22;6555;50.468;8.480;2022-10-04T03:38:46;9.80;58.60
12981;DHT22;6555;50.468;8.480;2022-10-04T03:43:53;9.80;58.60
12981;DHT22;6555;50.468;8.480;2022-10-04T03:48:57;9.80;58.60
12981;DHT22;6555;50.468;8.480;2022-10-04T03:54:01;9.80;58.60
12981;DHT22;6555;50.468;8.480;2022-10-04T03:59:15;9.70;58.50
12981;DHT22;6555;50.468;8.480;2022-10-04T04:04:22;9.70;58.60
12981;DHT22;6555;50.468;8.480;2022-10-04T04:09:37;9.70;58.80
12981;DHT22;6555;50.468;8.480;2022-10-04T04:14:43;9.70;59.20
12981;DHT22;6555;50.468;8.480;2022-10-04T04:19:48;9.70;59.10
12981;DHT22;6555;50.468;8.480;2022-10-04T04:24:51;9.80;59.90
12981;DHT22;6555;50.468;8.480;2022-10-04T04:29:58;9.80;59.20
12981;DHT22;6555;50.468;8.480;2022-10-04T04:35:04;9.80;59.30
12981;DHT22;6555;50.468;8.480;2022-10-04T04:40:19;9.90;59.40
12981;DHT22;6555;50.468;8.480;2022-10-04T04:45:25;9.90;59.50
12981;DHT22;6555;50.468;8.480;2022-10-04T04:50:33;10.00;59.30
12981;DHT22;6555;50.468;8.480;2022-10-04T04:55:39;10.00;59.10
12981;DHT22;6555;50.468;8.480;2022-10-04T05:01:06;10.00;59.70
12981;DHT22;6555;50.468;8.480;2022-10-04T05:06:23;10.00;59.10
12981;DHT22;6555;50.468;8.480;2022-10-04T05:11:28;10.00;59.40
12981;DHT22;6555;50.468;8.480;2022-10-04T05:16:39;10.00;59.30
12981;DHT22;6555;50.468;8.480;2022-10-04T05:21:44;10.00;59.60
12981;DHT22;6555;50.468;8.480;2022-10-04T05:26:50;10.00;59.40
12981;DHT22;6555;50.468;8.480;2022-10-04T05:32:04;10.10;59.40
12981;DHT22;6555;50.468;8.480;2022-10-04T05:37:25;10.10;59.40
12981;DHT22;6555;50.468;8.480;2022-10-04T05:42:36;10.10;59.60
12981;DHT22;6555;50.468;8.480;2022-10-04T05:47:49;10.10;59.40
12981;DHT22;6555;50.468;8.480;2022-10-04T05:53:12;10.10;59.50
12981;DHT22;6555;50.468;8.480;2022-10-04T05:58:32;10.10;59.70
12981;DHT22;6555;50.468;8.480;2022-10-04T06:03:54;10.10;59.80
12981;DHT22;6555;50.468;8.480;2022-10-04T06:09:09;10.20;59.80
12981;DHT22;6555;50.468;8.480;2022-10-04T06:14:44;10.20;59.70
12981;DHT22;6555;50.468;8.480;2022-10-04T06:25:50;10.20;59.70
12981;DHT22;6555;50.468;8.480;2022-10-04T06:31:14;10.20;59.50
12981;DHT22;6555;50.468;8.480;2022-10-04T06:36:32;10.20;59.70
12981;DHT22;6555;50.468;8.480;2022-10-04T06:41:58;10.20;59.40
12981;DHT22;6555;50.468;8.480;2022-10-04T06:47:19;10.20;59.30
12981;DHT22;6555;50.468;8.480;2022-10-04T06:52:40;10.10;59.60
12981;DHT22;6555;50.468;8.480;2022-10-04T06:58:17;10.00;59.70
12981;DHT22;6555;50.468;8.480;2022-10-04T07:03:32;10.00;60.10
12981;DHT22;6555;50.468;8.480;2022-10-04T07:08:39;10.10;60.30
12981;DHT22;6555;50.468;8.480;2022-10-04T07:13:50;10.10;60.50
12981;DHT22;6555;50.468;8.480;2022-10-04T07:19:04;10.20;60.60
12981;DHT22;6555;50.468;8.480;2022-10-04T07:24:11;10.30;60.60
12981;DHT22;6555;50.468;8.480;2022-10-04T07:29:23;10.40;60.60
12981;DHT22;6555;50.468;8.480;2022-10-04T07:34:28;10.60;61.00
12981;DHT22;6555;50.468;8.480;2022-10-04T07:39:40;10.70;61.10
12981;DHT22;6555;50.468;8.480;2022-10-04T07:44:56;10.90;61.40
12981;DHT22;6555;50.468;8.480;2022-10-04T07:50:18;11.00;61.50
12981;DHT22;6555;50.468;8.480;2022-10-04T07:55:25;11.20;61.50
12981;DHT22;6555;50.468;8.480;2022-10-04T08:00:39;11.30;61.40
12981;DHT22;6555;50.468;8.480;2022-10-04T08:05:49;11.50;61.90
12981;DHT22;6555;50.468;8.480;2022-10-04T08:11:06;11.60;61.60
12981;DHT22;6555;50.468;8.480;2022-10-04T08:16:24;11.90;62.10
12981;DHT22;6555;50.468;8.480;2022-10-04T08:21:41;12.00;62.00
12981;DHT22;6555;50.468;8.480;2022-10-04T08:27:00;12.20;62.20
12981;DHT22;6555;50.468;8.480;2022-10-04T08:32:19;12.40;62.30
12981;DHT22;6555;50.468;8.480;2022-10-04T08:37:32;12.60;62.30
12981;DHT22;6555;50.468;8.480;2022-10-04T08:43:00;12.80;62.30
12981;DHT22;6555;50.468;8.480;2022-10-04T08:48:35;13.00;62.50
12981;DHT22;6555;50.468;8.480;2022-10-04T08:54:25;13.20;62.60
12981;DHT22;6555;50.468;8.480;2022-10-04T09:05:30;13.60;62.80
12981;DHT22;6555;50.468;8.480;2022-10-04T09:10:58;13.80;62.60
12981;DHT22;6555;50.468;8.480;2022-10-04T09:16:14;13.90;62.30
12981;DHT22;6555;50.468;8.480;2022-10-04T09:21:39;14.10;62.30
12981;DHT22;6555;50.468;8.480;2022-10-04T09:26:45;14.20;62.50
12981;DHT22;6555;50.468;8.480;2022-10-04T09:32:15;14.40;62.40
12981;DHT22;6555;50.468;8.480;2022-10-04T09:37:31;14.50;62.70
12981;DHT22;6555;50.468;8.480;2022-10-04T09:43:06;14.70;62.60
12981;DHT22;6555;50.468;8.480;2022-10-04T09:48:24;14.90;62.80
12981;DHT22;6555;50.468;8.480;2022-10-04T09:53:36;15.00;62.80
12981;DHT22;6555;50.468;8.480;2022-10-04T09:58:57;15.20;62.70
12981;DHT22;6555;50.468;8.480;2022-10-04T10:04:34;15.40;62.70
12981;DHT22;6555;50.468;8.480;2022-10-04T10:09:46;15.60;62.70
12981;DHT22;6555;50.468;8.480;2022-10-04T10:15:20;15.80;62.40
12981;DHT22;6555;50.468;8.480;2022-10-04T10:20:50;15.90;62.30
12981;DHT22;6555;50.468;8.480;2022-10-04T10:26:34;16.10;62.50
12981;DHT22;6555;50.468;8.480;2022-10-04T10:31:53;16.30;62.70
12981;DHT22;6555;50.468;8.480;2022-10-04T10:37:07;16.40;62.60
12981;DHT22;6555;50.468;8.480;2022-10-04T10:42:38;16.60;62.70
12981;DHT22;6555;50.468;8.480;2022-10-04T10:47:52;16.90;62.60
12981;DHT22;6555;50.468;8.480;2022-10-04T10:53:15;17.10;62.40
12981;DHT22;6555;50.468;8.480;2022-10-04T11:04:25;17.40;62.10
12981;DHT22;6555;50.468;8.480;2022-10-04T11:09:59;17.50;62.10
12981;DHT22;6555;50.468;8.480;2022-10-04T11:15:56;17.70;62.00
12981;DHT22;6555;50.468;8.480;2022-10-04T11:21:22;18.00;61.90
12981;DHT22;6555;50.468;8.480;2022-10-04T11:27:03;18.20;61.80
12981;DHT22;6555;50.468;8.480;2022-10-04T11:32:27;18.40;61.70
12981;DHT22;6555;50.468;8.480;2022-10-04T11:37:46;18.70;62.00
12981;DHT22;6555;50.468;8.480;2022-10-04T12:23:36;20.60;60.70
12981;DHT22;6555;50.468;8.480;2022-10-04T12:34:41;21.10;60.10
12981;DHT22;6555;50.468;8.480;2022-10-04T12:40:05;21.20;60.00
12981;DHT22;6555;50.468;8.480;2022-10-04T12:45:38;21.40;59.60
12981;DHT22;6555;50.468;8.480;2022-10-04T12:50:55;21.60;59.40
12981;DHT22;6555;50.468;8.480;2022-10-04T12:56:06;21.80;59.00
12981;DHT22;6555;50.468;8.480;2022-10-04T13:01:20;21.90;59.50
12981;DHT22;6555;50.468;8.480;2022-10-04T13:06:32;22.20;58.90
12981;DHT22;6555;50.468;8.480;2022-10-04T13:11:56;22.40;58.80
12981;DHT22;6555;50.468;8.480;2022-10-04T13:17:11;22.60;58.10
12981;DHT22;6555;50.468;8.480;2022-10-04T13:22:44;22.70;57.90
12981;DHT22;6555;50.468;8.480;2022-10-04T13:28:01;22.80;57.90
12981;DHT22;6555;50.468;8.480;2022-10-04T13:33:13;23.00;58.20
12981;DHT22;6555;50.468;8.480;2022-10-04T13:38:38;23.10;57.40
12981;DHT22;6555;50.468;8.480;2022-10-04T13:44:19;23.30;57.30
12981;DHT22;6555;50.468;8.480;2022-10-04T13:49:36;23.40;57.10
12981;DHT22;6555;50.468;8.480;2022-10-04T13:54:52;23.60;56.60
12981;DHT22;6555;50.468;8.480;2022-10-04T14:11:55;24.10;56.30
12981;DHT22;6555;50.468;8.480;2022-10-04T14:17:34;24.30;55.60
12981;DHT22;6555;50.468;8.480;2022-10-04T14:23:10;24.50;55.60
12981;DHT22;6555;50.468;8.480;2022-10-04T14:40:18;24.50;51.80
12981;DHT22;6555;50.468;8.480;2022-10-04T14:45:31;24.20;51.80
12981;DHT22;6555;50.468;8.480;2022-10-04T14:50:47;23.90;51.90
12981;DHT22;6555;50.468;8.480;2022-10-04T15:01:28;23.30;51.20
12981;DHT22;6555;50.468;8.480;2022-10-04T15:06:39;23.10;52.80
12981;DHT22;6555;50.468;8.480;2022-10-04T15:11:48;22.80;52.60
12981;DHT22;6555;50.468;8.480;2022-10-04T15:17:26;22.70;52.80
12981;DHT22;6555;50.468;8.480;2022-10-04T15:22:38;22.40;51.80
12981;DHT22;6555;50.468;8.480;2022-10-04T15:27:50;22.20;52.00
12981;DHT22;6555;50.468;8.480;2022-10-04T15:33:22;22.00;51.80
12981;DHT22;6555;50.468;8.480;2022-10-04T15:38:30;21.80;52.10
12981;DHT22;6555;50.468;8.480;2022-10-04T15:43:41;21.60;53.20
12981;DHT22;6555;50.468;8.480;2022-10-04T15:49:08;21.40;52.20
12981;DHT22;6555;50.468;8.480;2022-10-04T16:00:04;21.10;51.80
12981;DHT22;6555;50.468;8.480;2022-10-04T16:05:20;21.00;52.00
12981;DHT22;6555;50.468;8.480;2022-10-04T16:10:27;20.80;52.20
12981;DHT22;6555;50.468;8.480;2022-10-04T16:15:34;20.70;52.50
12981;DHT22;6555;50.468;8.480;2022-10-04T16:21:03;20.60;52.30
12981;DHT22;6555;50.468;8.480;2022-10-04T16:26:10;20.50;51.40
12981;DHT22;6555;50.468;8.480;2022-10-04T16:31:36;20.30;52.30
12981;DHT22;6555;50.468;8.480;2022-10-04T16:36:48;20.10;51.00
12981;DHT22;6555;50.468;8.480;2022-10-04T16:41:58;19.80;51.80
12981;DHT22;6555;50.468;8.480;2022-10-04T16:47:18;19.70;52.30
12981;DHT22;6555;50.468;8.480;2022-10-04T16:52:43;19.50;52.00
12981;DHT22;6555;50.468;8.480;2022-10-04T17:03:34;19.20;52.20
12981;DHT22;6555;50.468;8.480;2022-10-04T17:09:01;19.10;52.90
12981;DHT22;6555;50.468;8.480;2022-10-04T17:14:28;19.00;52.60
12981;DHT22;6555;50.468;8.480;2022-10-04T17:19:39;18.90;52.70
12981;DHT22;6555;50.468;8.480;2022-10-04T17:24:58;18.90;53.00
12981;DHT22;6555;50.468;8.480;2022-10-04T17:30:13;18.90;53.00
12981;DHT22;6555;50.468;8.480;2022-10-04T17:35:56;18.80;52.90
12981;DHT22;6555;50.468;8.480;2022-10-04T18:01:45;18.30;52.80
12981;DHT22;6555;50.468;8.480;2022-10-04T18:07:48;18.10;52.90
12981;DHT22;6555;50.468;8.480;2022-10-04T18:40:42;17.00;53.20
12981;DHT22;6555;50.468;8.480;2022-10-04T18:54:44;16.80;53.20
12981;DHT22;6555;50.468;8.480;2022-10-04T19:46:55;15.70;53.80
12981;DHT22;6555;50.468;8.480;2022-10-04T20:14:55;15.30;53.80
12981;DHT22;6555;50.468;8.480;2022-10-04T20:21:09;15.20;53.90
12981;DHT22;6555;50.468;8.480;2022-10-04T20:27:06;15.00;53.80
12981;DHT22;6555;50.468;8.480;2022-10-04T20:32:59;14.90;53.90
12981;DHT22;6555;50.468;8.480;2022-10-04T20:38:21;14.80;53.90
12981;DHT22;6555;50.468;8.480;2022-10-04T20:43:59;14.70;54.00
12981;DHT22;6555;50.468;8.480;2022-10-04T20:49:18;14.60;53.90
12981;DHT22;6555;50.468;8.480;2022-10-04T20:54:32;14.50;53.90
12981;DHT22;6555;50.468;8.480;2022-10-04T20:59:46;14.40;54.00
12981;DHT22;6555;50.468;8.480;2022-10-04T21:05:21;14.40;54.10
12981;DHT22;6555;50.468;8.480;2022-10-04T21:11:14;14.30;54.40
12981;DHT22;6555;50.468;8.480;2022-10-04T21:16:53;14.20;54.30
12981;DHT22;6555;50.468;8.480;2022-10-04T21:22:55;14.20;54.30
12981;DHT22;6555;50.468;8.480;2022-10-04T21:28:34;14.20;54.20
12981;DHT22;6555;50.468;8.480;2022-10-04T21:34:13;14.10;54.10
12981;DHT22;6555;50.468;8.480;2022-10-04T21:40:25;13.90;54.90
12981;DHT22;6555;50.468;8.480;2022-10-04T21:45:51;13.90;54.30
12981;DHT22;6555;50.468;8.480;2022-10-04T21:51:19;13.80;54.30
12981;DHT22;6555;50.468;8.480;2022-10-04T21:57:13;13.70;54.50
12981;DHT22;6555;50.468;8.480;2022-10-04T22:02:29;13.60;54.40
12981;DHT22;6555;50.468;8.480;2022-10-04T22:07:47;13.50;54.30
12981;DHT22;6555;50.468;8.480;2022-10-04T22:13:27;13.50;54.20
12981;DHT22;6555;50.468;8.480;2022-10-04T22:19:00;13.30;54.20
12981;DHT22;6555;50.468;8.480;2022-10-04T22:24:20;13.20;53.90
12981;DHT22;6555;50.468;8.480;2022-10-04T22:29:43;13.00;54.20
12981;DHT22;6555;50.468;8.480;2022-10-04T22:35:14;13.00;54.40
12981;DHT22;6555;50.468;8.480;2022-10-04T22:40:47;12.90;54.60
12981;DHT22;6555;50.468;8.480;2022-10-04T22:46:03;12.90;54.60
12981;DHT22;6555;50.468;8.480;2022-10-04T22:51:21;12.80;54.70
12981;DHT22;6555;50.468;8.480;2022-10-04T22:56:41;12.80;54.60
12981;DHT22;6555;50.468;8.480;2022-10-04T23:02:09;12.70;54.60
12981;DHT22;6555;50.468;8.480;2022-10-04T23:07:26;12.70;54.80
12981;DHT22;6555;50.468;8.480;2022-10-04T23:12:52;12.70;54.80
12981;DHT22;6555;50.468;8.480;2022-10-04T23:18:22;12.70;54.60
12981;DHT22;6555;50.468;8.480;2022-10-04T23:23:57;12.60;54.60
12981;DHT22;6555;50.468;8.480;2022-10-04T23:29:17;12.50;54.60
12981;DHT22;6555;50.468;8.480;2022-10-04T23:34:57;12.50;54.60
12981;DHT22;6555;50.468;8.480;2022-10-04T23:40:19;12.40;54.70
12981;DHT22;6555;50.468;8.480;2022-10-04T23:45:24;12.40;54.60
12981;DHT22;6555;50.468;8.480;2022-10-04T23:50:32;12.30;54.70
12981;DHT22;6555;50.468;8.480;2022-10-04T23:55:38;12.30;54.70
